»·PEaware :: N1004E KSNA-KAVX

N1004E :: KSNA-KAVX

FLIGHT INFORMATION

Flight Status: Arrived
Operator: Privately registered:
United States
More flights under this callsign
Pilot: Lance W. (24701)
Aircraft: CESSNA T210 TURBO CENTURION
(T210)
More flights by this aircraft type
Origin: KSNA John Wayne-Orange Co
United States
Destination: KAVX Catalina
United States
More flights between these airports :: More routes between these airports
Route: SLI V21 SXC
File this flight plan on PilotEdge
Remarks: Departure question Fly Diverse Vectors, ODP, or partial Channel Three SID, Direct? For I-7 rating
Altitude:
(Current/Filed)
4,000ft
Speed:
(Current/Filed)
150kts
Departed: 29-Nov-19 09:57 PM
Arrived: 29-Nov-19 10:38 PM
Distance/Time
Traveled:
32nm/0:41
Distance/Time
To Go:
Arrived

Flight Plot

Page will automatically refresh every two minutes.


Map Options




Map Legend


Flown Route
Filed Route
Departure Airport
Arrival Airport
Navaid (VOR, NDB)
Fix

Horizontal Profiles

Position Reports

Time Latitude Longitude Heading Altitude Ground
Speed
29-Nov-19 21:42 33.677617 -117.871674 208 60ft 0kts
29-Nov-19 21:43 33.677617 -117.871674 208 60ft 0kts
29-Nov-19 21:44 33.677617 -117.871674 208 60ft 0kts
29-Nov-19 21:45 33.677617 -117.871674 208 60ft 0kts
29-Nov-19 21:46 33.677617 -117.871674 208 60ft 0kts
29-Nov-19 21:47 33.677617 -117.871674 208 60ft 0kts
29-Nov-19 21:48 33.677536 -117.871727 209 60ft 0kts
29-Nov-19 21:49 33.677456 -117.871781 209 60ft 0kts
29-Nov-19 21:50 33.677903 -117.869058 27 60ft 8kts
29-Nov-19 21:51 33.680794 -117.867260 28 60ft 8kts
29-Nov-19 21:52 33.681190 -117.866842 71 60ft 0kts
29-Nov-19 21:53 33.681190 -117.866842 71 60ft 0kts
29-Nov-19 21:54 33.681190 -117.866842 72 60ft 0kts
29-Nov-19 21:55 33.679956 -117.866132 204 60ft 32kts
29-Nov-19 21:56 33.664128 -117.881703 232 1275ft 86kts
29-Nov-19 21:57 33.647500 -117.908767 233 2047ft 112kts
29-Nov-19 21:58 33.627110 -117.942160 233 2680ft 109kts
29-Nov-19 21:59 33.609247 -117.971368 233 3575ft 109kts
29-Nov-19 22:00 33.589558 -118.003549 233 4009ft 141kts
29-Nov-19 22:01 33.565599 -118.042819 233 3999ft 145kts
29-Nov-19 22:02 33.541873 -118.081705 233 3999ft 144kts
29-Nov-19 22:03 33.518220 -118.120466 233 3999ft 144kts
29-Nov-19 22:04 33.494618 -118.159138 233 3999ft 144kts
29-Nov-19 22:05 33.470953 -118.197908 233 3999ft 144kts
29-Nov-19 22:06 33.447275 -118.236693 233 3999ft 144kts
29-Nov-19 22:07 33.423695 -118.275314 233 3999ft 144kts
29-Nov-19 22:08 33.401155 -118.315019 238 3999ft 144kts
29-Nov-19 22:09 33.382452 -118.357255 248 3999ft 144kts
29-Nov-19 22:10 33.371338 -118.402650 263 3994ft 136kts
29-Nov-19 22:11 33.382766 -118.432889 15 3995ft 115kts
29-Nov-19 22:12 33.377992 -118.409176 179 4001ft 108kts
29-Nov-19 22:13 33.357090 -118.431043 275 3997ft 107kts
29-Nov-19 22:14 33.377029 -118.429788 70 4002ft 106kts
29-Nov-19 22:15 33.366665 -118.403999 183 4000ft 106kts
29-Nov-19 22:16 33.364328 -118.428325 348 4000ft 106kts
29-Nov-19 22:17 33.380934 -118.404474 104 3999ft 106kts
29-Nov-19 22:18 33.357149 -118.404778 218 4000ft 106kts
29-Nov-19 22:19 33.368314 -118.422917 36 3999ft 106kts
29-Nov-19 22:20 33.396397 -118.421542 7 3995ft 107kts
29-Nov-19 22:21 33.424709 -118.415116 359 4000ft 107kts
29-Nov-19 22:22 33.454497 -118.414839 0 4000ft 107kts
29-Nov-19 22:23 33.484260 -118.414491 0 3995ft 103kts
29-Nov-19 22:24 33.508901 -118.429765 319 4002ft 105kts
29-Nov-19 22:25 33.532519 -118.434641 68 3997ft 106kts
29-Nov-19 22:26 33.514718 -118.410299 155 3848ft 120kts
29-Nov-19 22:27 33.478556 -118.403743 183 3179ft 142kts
29-Nov-19 22:28 33.438603 -118.406488 183 2482ft 145kts
29-Nov-19 22:29 33.407109 -118.424255 252 2195ft 127kts
29-Nov-19 22:30 33.396243 -118.462141 248 2154ft 113kts
29-Nov-19 22:31 33.389427 -118.459166 312 1919ft 126kts
29-Nov-19 22:32 33.407361 -118.442623 62 1840ft 109kts
29-Nov-19 22:33 33.407965 -118.415011 174 1824ft 69kts
29-Nov-19 22:34 33.393903 -118.431467 229 1880ft 112kts
29-Nov-19 22:35 33.377749 -118.414092 40 2566ft 161kts
29-Nov-19 22:36 33.411411 -118.391767 305 1938ft 107kts
29-Nov-19 22:37 33.405114 -118.415687 234 1546ft 23kts
29-Nov-19 22:38 33.403690 -118.417256 227 1556ft 0kts
29-Nov-19 22:39 33.403690 -118.417256 227 1556ft 0kts
29-Nov-19 22:40 33.403690 -118.417256 226 1556ft 0kts
29-Nov-19 22:41 33.403690 -118.417256 226 1556ft 0kts
29-Nov-19 22:42 33.403690 -118.417256 226 1556ft 0kts
29-Nov-19 22:43 33.403690 -118.417256 226 1556ft 0kts
29-Nov-19 22:44 33.403690 -118.417256 226 1556ft 0kts
29-Nov-19 22:45 33.403690 -118.417256 226 1556ft 0kts
29-Nov-19 22:46 33.403690 -118.417256 226 1556ft 0kts
29-Nov-19 22:47 33.403690 -118.417256 226 1556ft 0kts

Navigation Log

Ident Type
Flight plan parsing failed, navigation log unavailable